createdAt,value
2022-08-05T00:00:24.109Z,101064.50
2022-08-05T00:02:54.449Z,101059.34
2022-08-05T00:06:03.050Z,101051.41
2022-08-05T00:08:32.948Z,101053.28
2022-08-05T00:11:01.604Z,101049.44
2022-08-05T00:13:39.139Z,101053.72
2022-08-05T00:16:10.954Z,101043.53
2022-08-05T00:18:42.369Z,101064.72
2022-08-05T00:21:14.506Z,101060.38
2022-08-05T00:24:09.793Z,101064.06
2022-08-05T00:26:34.245Z,101056.06
2022-08-05T00:29:02.734Z,101039.50
2022-08-05T00:31:54.009Z,101048.09
2022-08-05T00:34:56.415Z,101054.34
2022-08-05T00:37:10.347Z,101052.59
2022-08-05T00:39:58.751Z,101048.84
2022-08-05T00:42:34.425Z,101067.28
2022-08-05T00:45:03.057Z,101070.16
2022-08-05T00:47:53.219Z,101070.78
2022-08-05T00:50:20.828Z,101051.59
2022-08-05T00:52:49.381Z,101053.50
2022-08-05T00:55:18.948Z,101066.75
2022-08-05T00:57:58.147Z,101057.94
2022-08-05T01:00:27.647Z,101060.41
2022-08-05T01:02:56.060Z,101065.03
2022-08-05T01:05:24.988Z,101062.47
2022-08-05T01:08:42.369Z,101046.91
2022-08-05T01:10:51.645Z,101064.22
2022-08-05T01:13:27.569Z,101059.03
2022-08-05T01:16:26.093Z,101059.03
2022-08-05T01:19:14.169Z,101068.16
2022-08-05T01:22:15.364Z,101082.41
2022-08-05T01:25:08.599Z,101078.97
2022-08-05T01:28:21.144Z,101084.44
2022-08-05T01:30:55.912Z,101078.88
2022-08-05T01:33:35.430Z,101084.94
2022-08-05T01:36:13.118Z,101084.06
2022-08-05T01:38:48.611Z,101080.56
2022-08-05T01:41:22.403Z,101077.72
2022-08-05T01:43:56.017Z,101083.97
2022-08-05T01:46:41.984Z,101080.16
2022-08-05T01:49:23.724Z,101071.59
2022-08-05T01:51:58.245Z,101082.06
2022-08-05T01:54:30.856Z,101075.00
2022-08-05T01:58:10.381Z,101064.50
2022-08-05T01:59:50.762Z,101056.38
2022-08-05T02:02:28.439Z,101053.91
2022-08-05T02:05:03.150Z,101057.31
2022-08-05T02:07:32.273Z,101060.25
2022-08-05T02:10:03.535Z,101062.03
2022-08-05T02:12:38.489Z,101062.84
2022-08-05T02:15:12.205Z,101060.19
2022-08-05T02:18:32.053Z,101056.75
2022-08-05T02:20:55.194Z,101038.09
2022-08-05T02:23:33.506Z,101061.03
2022-08-05T02:26:04.233Z,101058.47
2022-08-05T02:28:41.445Z,101059.63
2022-08-05T02:31:14.564Z,101063.16
2022-08-05T02:33:50.195Z,101066.66
2022-08-05T02:36:27.929Z,101063.03
2022-08-05T02:39:01.677Z,101071.75
2022-08-05T02:41:37.565Z,101074.03
2022-08-05T02:44:25.449Z,101058.09
2022-08-05T02:47:00.497Z,101052.78
2022-08-05T02:49:36.375Z,101047.84
2022-08-05T02:52:11.493Z,101060.19
2022-08-05T02:54:52.171Z,101016.59
2022-08-05T02:58:11.989Z,101043.28
2022-08-05T03:00:14.365Z,101052.97
2022-08-05T03:02:45.332Z,101057.31
2022-08-05T03:05:16.448Z,101061.78
2022-08-05T03:08:00.486Z,101057.41
2022-08-05T03:10:33.842Z,101068.16
2022-08-05T03:15:28.890Z,101074.56
2022-08-05T03:17:57.650Z,101077.16
2022-08-05T03:20:27.689Z,101063.03
2022-08-05T03:22:57.562Z,101066.44
2022-08-05T03:25:33.145Z,101055.81
2022-08-05T03:28:18.680Z,101047.09
2022-08-05T03:30:49.697Z,101038.28
2022-08-05T03:33:20.075Z,101041.84
2022-08-05T03:35:52.702Z,101064.00
2022-08-05T03:38:23.997Z,101058.94
2022-08-05T03:41:04.070Z,101067.66
2022-08-05T03:44:08.814Z,101045.72
2022-08-05T03:46:30.056Z,101053.66
2022-08-05T03:49:01.897Z,101042.16
2022-08-05T03:52:38.698Z,101049.31
2022-08-05T03:55:07.197Z,101053.81
2022-08-05T03:57:42.470Z,101068.81
2022-08-05T04:00:16.296Z,101074.03
2022-08-05T04:02:58.718Z,101071.34
2022-08-05T04:05:33.651Z,101061.59
2022-08-05T04:08:14.780Z,101056.28
2022-08-05T04:10:56.113Z,101068.66
2022-08-05T04:13:26.083Z,101062.47
2022-08-05T04:16:15.179Z,101065.00
2022-08-05T04:18:54.210Z,101060.50
2022-08-05T04:22:09.159Z,101066.59
2022-08-05T04:24:19.088Z,101079.94
2022-08-05T04:26:50.517Z,101080.81
2022-08-05T04:29:18.645Z,101072.84
2022-08-05T04:31:48.356Z,101078.09
2022-08-05T04:34:32.743Z,101068.56
2022-08-05T04:37:03.218Z,101064.06
2022-08-05T04:39:35.457Z,101054.63
2022-08-05T04:42:04.075Z,100977.50
2022-08-05T04:44:32.323Z,101077.22
2022-08-05T04:47:09.517Z,101070.94
2022-08-05T04:50:02.749Z,101052.16
2022-08-05T04:52:28.161Z,101063.41
2022-08-05T04:54:57.997Z,101070.44
2022-08-05T04:57:37.274Z,101064.38
2022-08-05T05:00:06.969Z,101062.53
2022-08-05T05:02:43.078Z,101060.88
2022-08-05T05:05:16.588Z,101074.59
2022-08-05T05:08:01.217Z,101067.28
2022-08-05T05:10:33.231Z,101066.69
2022-08-05T05:13:04.230Z,101083.50
2022-08-05T05:15:54.362Z,101078.34
2022-08-05T05:18:31.325Z,101086.50
2022-08-05T05:21:04.033Z,101099.75
2022-08-05T05:23:39.097Z,101103.97
2022-08-05T05:26:28.541Z,101096.06
2022-08-05T05:29:02.331Z,101093.19
2022-08-05T05:34:02.374Z,101052.38
2022-08-05T05:36:31.325Z,101026.47
2022-08-05T05:38:59.784Z,101043.78
2022-08-05T05:41:40.761Z,101059.59
2022-08-05T05:44:34.426Z,101056.06
2022-08-05T05:46:58.565Z,101068.56
2022-08-05T05:49:33.187Z,101049.47
2022-08-05T05:52:01.566Z,101060.16
2022-08-05T05:54:51.056Z,101073.88
2022-08-05T05:57:21.302Z,101063.31
2022-08-05T05:59:49.709Z,101071.56
2022-08-05T06:02:32.609Z,101064.19
2022-08-05T06:05:10.387Z,101076.06
2022-08-05T06:08:01.205Z,101070.75
2022-08-05T06:10:36.387Z,101063.44
2022-08-05T06:13:07.100Z,101052.78
2022-08-05T06:16:28.518Z,101054.44
2022-08-05T06:18:31.484Z,101058.19
2022-08-05T06:21:00.773Z,101065.22
2022-08-05T06:23:32.042Z,101063.50
2022-08-05T06:26:13.719Z,101073.19
2022-08-05T06:28:51.366Z,101066.91
2022-08-05T06:31:22.004Z,101057.25
2022-08-05T06:34:06.191Z,101057.22
2022-08-05T06:36:37.471Z,101044.81
2022-08-05T06:39:27.057Z,101068.63
2022-08-05T06:41:57.325Z,101063.09
2022-08-05T06:44:29.074Z,101041.94
2022-08-05T06:46:57.815Z,101064.03
2022-08-05T06:50:00.068Z,101066.28
2022-08-05T06:52:38.292Z,101071.38
2022-08-05T06:55:08.785Z,101076.50
2022-08-05T06:58:03.081Z,101083.75
2022-08-05T07:00:27.131Z,101083.81
2022-08-05T07:02:58.127Z,101075.75
2022-08-05T07:05:37.131Z,101087.00
2022-08-05T07:08:10.863Z,101083.31
2022-08-05T07:10:53.305Z,101062.00
2022-08-05T07:13:58.042Z,101053.19
2022-08-05T07:17:58.980Z,101060.44
2022-08-05T07:22:28.790Z,101072.75
2022-08-05T07:25:23.944Z,101047.50
2022-08-05T07:27:58.099Z,101070.09
2022-08-05T07:30:33.376Z,101075.22
2022-08-05T07:33:04.968Z,101075.13
2022-08-05T07:36:01.814Z,101082.31
2022-08-05T07:38:33.491Z,101090.94
2022-08-05T07:42:07.317Z,101085.75
2022-08-05T07:43:57.053Z,101084.03
2022-08-05T07:46:26.666Z,101097.13
2022-08-05T07:49:04.225Z,101102.56
2022-08-05T07:51:48.663Z,101105.63
2022-08-05T07:54:31.579Z,101105.22
2022-08-05T07:57:18.131Z,101104.16
2022-08-05T07:59:53.520Z,101108.34
2022-08-05T08:02:31.373Z,101066.13
2022-08-05T08:05:16.630Z,101100.09
2022-08-05T08:07:59.024Z,101101.50
2022-08-05T08:10:28.854Z,101029.00
2022-08-05T08:12:58.724Z,101121.94
2022-08-05T08:15:37.460Z,101091.25
2022-08-05T08:18:15.540Z,101105.63
2022-08-05T08:21:01.924Z,101129.38
2022-08-05T08:24:02.806Z,101112.84
2022-08-05T08:26:29.481Z,101103.03
2022-08-05T08:29:21.726Z,101110.13
2022-08-05T08:31:47.515Z,101107.53
2022-08-05T08:34:18.558Z,101104.16
2022-08-05T08:36:52.467Z,101094.50
2022-08-05T08:39:24.989Z,101117.28
2022-08-05T08:41:59.785Z,101109.66
2022-08-05T08:45:24.182Z,101115.66
2022-08-05T08:48:06.090Z,101106.06
2022-08-05T08:50:31.851Z,101133.22
2022-08-05T08:53:12.176Z,101099.81
2022-08-05T08:56:04.605Z,101094.66
2022-08-05T08:58:37.207Z,101118.25
2022-08-05T09:01:16.670Z,101114.84
2022-08-05T09:03:47.654Z,101123.47
2022-08-05T09:06:21.233Z,101123.47
2022-08-05T09:08:56.689Z,101121.91
2022-08-05T09:11:51.783Z,101127.13
2022-08-05T09:14:56.816Z,101125.72
2022-08-05T09:17:03.754Z,101116.28
2022-08-05T09:19:36.423Z,101122.75
2022-08-05T09:22:31.949Z,101128.28
2022-08-05T09:25:14.055Z,101120.94
2022-08-05T09:28:04.271Z,101132.09
2022-08-05T09:30:35.596Z,101128.50
2022-08-05T09:33:07.960Z,101131.13
2022-08-05T09:35:36.732Z,101125.44
2022-08-05T09:38:16.801Z,101127.66
2022-08-05T09:40:53.756Z,101129.63
2022-08-05T09:43:40.738Z,101138.59
2022-08-05T09:46:28.086Z,101126.63
2022-08-05T09:49:06.811Z,101127.22
2022-08-05T09:51:40.017Z,101128.47
2022-08-05T09:54:10.062Z,101135.22
2022-08-05T09:56:40.861Z,101119.13
2022-08-05T09:59:27.546Z,101127.03
2022-08-05T10:01:58.156Z,101119.75
2022-08-05T10:04:38.562Z,101139.41
2022-08-05T10:07:20.541Z,101135.53
2022-08-05T10:10:13.805Z,101138.91
2022-08-05T10:12:50.447Z,101132.63
2022-08-05T10:15:29.874Z,101132.38
2022-08-05T10:18:14.100Z,101134.00
2022-08-05T10:20:47.608Z,101137.38
2022-08-05T10:23:34.253Z,101131.16
2022-08-05T10:26:14.157Z,101126.91
2022-08-05T10:28:46.310Z,101123.81
2022-08-05T10:32:48.340Z,101107.72
2022-08-05T10:34:07.877Z,101118.41
2022-08-05T10:36:38.286Z,101112.06
2022-08-05T10:39:24.491Z,101110.78
2022-08-05T10:42:01.402Z,101114.81
2022-08-05T10:44:33.522Z,101116.75
2022-08-05T10:47:25.787Z,101122.31
2022-08-05T10:50:20.727Z,101124.13
2022-08-05T10:52:58.888Z,101138.88
2022-08-05T10:55:28.398Z,101133.19
2022-08-05T10:58:09.743Z,101118.53
2022-08-05T11:00:47.986Z,101124.81
2022-08-05T11:03:24.750Z,101124.72
2022-08-05T11:06:15.381Z,101120.47
2022-08-05T11:09:16.312Z,101123.78
2022-08-05T11:11:53.210Z,101124.38
2022-08-05T11:15:19.186Z,101122.97
2022-08-05T11:17:57.544Z,101108.78
2022-08-05T11:20:44.671Z,101118.94
2022-08-05T11:24:05.500Z,101135.06
2022-08-05T11:26:28.709Z,101131.16
2022-08-05T11:29:06.802Z,101124.28
2022-08-05T11:31:57.453Z,101131.69
2022-08-05T11:34:47.447Z,101137.63
2022-08-05T11:38:28.240Z,101141.63
2022-08-05T11:41:35.556Z,101139.88
2022-08-05T11:44:05.714Z,101128.38
2022-08-05T11:46:38.016Z,101140.88
2022-08-05T11:49:26.685Z,101134.06
2022-08-05T11:51:57.609Z,101131.75
2022-08-05T11:54:33.554Z,101148.56
2022-08-05T11:57:07.971Z,101152.06
2022-08-05T11:59:52.782Z,101149.13
2022-08-05T12:02:31.588Z,101164.59
2022-08-05T12:05:07.130Z,101160.84
2022-08-05T12:08:04.370Z,101166.81
2022-08-05T12:10:42.829Z,101160.13
2022-08-05T12:13:16.515Z,101172.63
2022-08-05T12:15:49.865Z,101167.41
2022-08-05T12:18:20.611Z,101177.22
2022-08-05T12:20:52.681Z,101176.56
2022-08-05T12:23:23.213Z,101165.94
2022-08-05T12:25:53.591Z,101173.41
2022-08-05T12:28:36.693Z,101163.34
2022-08-05T12:31:05.753Z,101173.06
2022-08-05T12:33:36.359Z,101171.53
2022-08-05T12:36:09.122Z,101166.28
2022-08-05T12:38:41.337Z,101172.69
2022-08-05T12:41:13.267Z,101162.19
2022-08-05T12:43:57.647Z,101177.97
2022-08-05T12:46:29.296Z,101193.09
2022-08-05T12:48:59.377Z,101190.41
2022-08-05T12:52:12.569Z,101186.94
2022-08-05T12:54:26.508Z,101185.06
2022-08-05T12:56:56.761Z,101184.44
2022-08-05T12:59:46.998Z,101165.91
2022-08-05T13:02:20.096Z,101164.34
2022-08-05T13:04:56.491Z,101165.22
2022-08-05T13:07:56.176Z,101158.75
2022-08-05T13:10:19.650Z,101158.00
2022-08-05T13:12:51.295Z,101168.00
2022-08-05T13:15:41.044Z,101163.59
2022-08-05T13:18:20.061Z,101170.63
2022-08-05T13:20:50.049Z,101169.66
2022-08-05T13:23:22.482Z,101184.09
2022-08-05T13:25:59.558Z,101173.75
2022-08-05T13:28:32.149Z,101167.00
2022-08-05T13:31:10.893Z,101171.78
2022-08-05T13:34:21.910Z,101158.28
2022-08-05T13:36:31.232Z,101173.41
2022-08-05T13:38:59.583Z,101170.50
2022-08-05T13:41:35.828Z,101169.75
2022-08-05T13:44:06.663Z,101166.41
2022-08-05T13:47:01.826Z,101163.75
2022-08-05T13:49:26.857Z,101168.06
2022-08-05T13:51:55.728Z,101152.91
2022-08-05T13:54:26.495Z,101164.16
2022-08-05T13:56:56.312Z,101165.31
2022-08-05T13:59:27.442Z,101122.72
2022-08-05T14:02:00.604Z,101157.38
2022-08-05T14:04:49.932Z,101156.91
2022-08-05T14:07:25.668Z,101150.94
2022-08-05T14:10:09.862Z,101152.59
2022-08-05T14:12:42.942Z,101157.47
2022-08-05T14:16:06.161Z,101164.56
2022-08-05T14:18:15.054Z,101151.91
2022-08-05T14:20:47.920Z,101144.50
2022-08-05T14:23:23.487Z,101131.22
2022-08-05T14:25:58.122Z,101121.56
2022-08-05T14:28:30.087Z,101144.19
2022-08-05T14:30:58.634Z,101146.91
2022-08-05T14:33:26.737Z,101126.19
2022-08-05T14:35:55.134Z,101133.25
2022-08-05T14:38:32.761Z,101144.78
2022-08-05T14:41:07.637Z,101141.56
2022-08-05T14:43:57.541Z,101138.22
2022-08-05T14:46:29.804Z,101143.03
2022-08-05T14:49:06.844Z,101153.28
2022-08-05T14:51:37.706Z,101149.00
2022-08-05T14:54:26.954Z,101142.69
2022-08-05T14:56:55.256Z,101154.00
2022-08-05T14:59:24.912Z,101147.31
2022-08-05T15:01:58.350Z,101172.00
2022-08-05T15:04:29.178Z,101170.56
2022-08-05T15:06:57.540Z,101150.03
2022-08-05T15:09:54.246Z,101172.00
2022-08-05T15:12:16.924Z,101165.34
2022-08-05T15:14:50.530Z,101171.56
2022-08-05T15:17:44.998Z,101177.06
2022-08-05T15:20:18.872Z,101164.09
2022-08-05T15:22:54.222Z,101162.84
2022-08-05T15:25:51.615Z,101161.56
2022-08-05T15:28:14.430Z,101158.47
2022-08-05T15:30:45.513Z,101150.72
2022-08-05T15:34:18.710Z,101161.94
2022-08-05T15:36:04.723Z,101152.69
2022-08-05T15:38:40.948Z,101152.25
2022-08-05T15:41:20.663Z,101153.91
2022-08-05T15:43:51.622Z,101160.00
2022-08-05T15:46:24.132Z,101147.22
2022-08-05T15:49:00.697Z,101132.19
2022-08-05T15:52:13.305Z,101134.16
2022-08-05T15:54:34.546Z,101123.06
2022-08-05T15:57:03.930Z,101121.31
2022-08-05T15:59:36.023Z,101108.91
2022-08-05T16:02:09.639Z,101111.00
2022-08-05T16:04:43.515Z,101121.19
2022-08-05T16:07:13.298Z,101120.19
2022-08-05T16:09:42.185Z,101119.47
2022-08-05T16:12:12.080Z,101117.28
2022-08-05T16:14:40.812Z,101120.66
2022-08-05T16:17:10.801Z,101127.94
2022-08-05T16:20:11.772Z,101130.34
2022-08-05T16:22:34.066Z,101122.19
2022-08-05T16:25:05.382Z,101131.03
2022-08-05T16:27:59.895Z,101126.34
2022-08-05T16:30:28.892Z,101129.28
2022-08-05T16:32:59.455Z,101127.75
2022-08-05T16:35:32.210Z,101136.56
2022-08-05T16:38:16.984Z,101132.19
2022-08-05T16:40:55.549Z,101138.97
2022-08-05T16:43:30.471Z,101150.19
2022-08-05T16:46:07.623Z,101146.34
2022-08-05T16:48:48.580Z,101137.72
2022-08-05T16:51:17.611Z,101136.00
2022-08-05T16:54:04.086Z,101133.91
2022-08-05T16:56:34.982Z,101152.41
2022-08-05T16:59:08.515Z,101142.63
2022-08-05T17:01:54.152Z,101150.47
2022-08-05T17:04:27.734Z,101158.22
2022-08-05T17:07:00.446Z,101158.13
2022-08-05T17:09:29.537Z,101148.06
2022-08-05T17:11:59.654Z,101160.75
2022-08-05T17:14:37.121Z,101158.41
2022-08-05T17:17:06.783Z,101157.91
2022-08-05T17:19:46.289Z,101153.16
2022-08-05T17:22:25.125Z,101150.00
2022-08-05T17:24:57.866Z,101155.41
2022-08-05T17:27:33.575Z,101151.94
2022-08-05T17:30:03.392Z,101135.13
2022-08-05T17:32:33.744Z,101151.34
2022-08-05T17:35:05.342Z,101156.97
2022-08-05T17:37:40.305Z,101151.34
2022-08-05T17:40:15.935Z,101139.59
2022-08-05T17:42:50.891Z,101145.53
2022-08-05T17:45:21.868Z,101161.72
2022-08-05T17:47:55.009Z,101151.03
2022-08-05T17:50:28.315Z,101096.00
2022-08-05T17:53:00.129Z,101118.31
2022-08-05T17:55:37.295Z,101126.44
2022-08-05T17:58:09.704Z,101133.28
2022-08-05T18:00:44.301Z,101133.09
2022-08-05T18:03:24.125Z,101155.16
2022-08-05T18:06:11.474Z,101149.16
2022-08-05T18:08:45.934Z,101123.91
2022-08-05T18:11:24.840Z,101143.13
2022-08-05T18:14:04.284Z,101150.00
2022-08-05T18:16:33.649Z,101102.97
2022-08-05T18:19:02.357Z,101147.00
2022-08-05T18:22:07.778Z,101136.34
2022-08-05T18:24:20.962Z,101148.63
2022-08-05T18:26:49.328Z,101076.97
2022-08-05T18:29:17.595Z,101152.63
2022-08-05T18:32:06.810Z,101152.13
2022-08-05T18:34:42.726Z,101144.06
2022-08-05T18:37:33.684Z,101116.66
2022-08-05T18:41:50.221Z,101153.25
2022-08-05T18:42:49.372Z,101148.94
2022-08-05T18:45:20.173Z,101151.94
2022-08-05T18:47:56.471Z,101166.06
2022-08-05T18:50:46.505Z,101144.47
2022-08-05T18:53:20.579Z,101139.88
2022-08-05T18:55:51.272Z,101151.31
2022-08-05T18:58:27.313Z,101136.56
2022-08-05T19:00:58.546Z,101156.03
2022-08-05T19:03:52.750Z,101161.19
2022-08-05T19:06:21.739Z,101142.84
2022-08-05T19:08:51.989Z,101166.88
2022-08-05T19:11:27.897Z,101143.88
2022-08-05T19:14:01.117Z,101158.47
2022-08-05T19:16:47.109Z,101163.88
2022-08-05T19:19:15.754Z,101165.47
2022-08-05T19:21:49.968Z,101151.44
2022-08-05T19:24:34.670Z,101159.63
2022-08-05T19:27:04.036Z,101143.56
2022-08-05T19:29:35.959Z,101167.16
2022-08-05T19:32:11.114Z,101169.13
2022-08-05T19:34:40.386Z,101172.53
2022-08-05T19:37:10.264Z,101162.03
2022-08-05T19:39:45.812Z,101176.44
2022-08-05T19:42:36.008Z,101179.91
2022-08-05T19:45:06.610Z,101163.13
2022-08-05T19:47:37.654Z,101173.00
2022-08-05T19:50:12.037Z,101173.25
2022-08-05T19:52:41.151Z,101184.06
2022-08-05T19:56:14.732Z,101173.34
2022-08-05T19:58:07.069Z,101166.19
2022-08-05T20:00:48.674Z,101152.41
2022-08-05T20:03:17.283Z,101177.06
2022-08-05T20:05:51.341Z,101179.78
2022-08-05T20:08:24.573Z,101178.81
2022-08-05T20:10:55.274Z,101176.00
2022-08-05T20:13:30.218Z,101180.56
2022-08-05T20:16:12.432Z,101174.31
2022-08-05T20:18:41.117Z,101188.47
2022-08-05T20:21:11.205Z,101175.38
2022-08-05T20:23:51.335Z,101180.72
2022-08-05T20:26:25.513Z,101175.53
2022-08-05T20:28:56.299Z,101180.75
2022-08-05T20:31:36.845Z,101187.31
2022-08-05T20:34:05.585Z,101188.28
2022-08-05T20:36:36.792Z,101175.53
2022-08-05T20:39:12.890Z,101161.59
2022-08-05T20:41:45.279Z,101187.78
2022-08-05T20:44:17.577Z,101177.25
2022-08-05T20:46:56.961Z,101173.75
2022-08-05T20:49:25.908Z,101168.91
2022-08-05T20:51:54.568Z,101170.53
2022-08-05T20:54:22.882Z,101166.22
2022-08-05T20:56:54.678Z,101172.47
2022-08-05T20:59:26.589Z,101169.75
2022-08-05T21:01:58.094Z,101172.56
2022-08-05T21:04:27.002Z,101176.09
2022-08-05T21:06:55.917Z,101167.16
2022-08-05T21:09:24.520Z,101167.53
2022-08-05T21:12:08.101Z,101164.56
2022-08-05T21:14:42.620Z,101158.25
2022-08-05T21:17:11.743Z,101174.22
2022-08-05T21:19:46.864Z,101167.16
2022-08-05T21:22:18.345Z,101161.84
2022-08-05T21:24:48.878Z,101165.25
2022-08-05T21:27:25.209Z,101166.84
2022-08-05T21:29:55.901Z,101163.38
2022-08-05T21:32:27.042Z,101158.31
2022-08-05T21:35:17.466Z,101164.47
2022-08-05T21:37:47.261Z,101165.47
2022-08-05T21:40:21.725Z,101146.50
2022-08-05T21:42:53.482Z,101174.38
2022-08-05T21:45:24.802Z,101149.44
2022-08-05T21:47:57.856Z,101172.56
2022-08-05T21:50:26.536Z,101169.13
2022-08-05T21:52:58.643Z,101167.47
2022-08-05T21:56:04.468Z,101162.94
2022-08-05T21:58:24.968Z,101158.34
2022-08-05T22:00:59.166Z,101162.06
2022-08-05T22:03:52.185Z,101167.28
2022-08-05T22:06:15.861Z,101165.63
2022-08-05T22:08:51.848Z,101170.88
2022-08-05T22:11:34.782Z,101166.47
2022-08-05T22:14:32.980Z,101156.91
2022-08-05T22:16:57.057Z,101170.31
2022-08-05T22:20:00.502Z,101167.16
2022-08-05T22:22:17.015Z,101160.38
2022-08-05T22:25:21.102Z,101165.56
2022-08-05T22:28:05.035Z,101173.63
2022-08-05T22:30:44.217Z,101179.91
2022-08-05T22:33:58.571Z,101187.78
2022-08-05T22:36:14.301Z,101176.09
2022-08-05T22:38:43.567Z,101180.75
2022-08-05T22:42:04.334Z,101174.56
2022-08-05T22:44:05.682Z,101178.16
2022-08-05T22:46:39.946Z,101176.56
2022-08-05T22:49:23.382Z,101183.78
2022-08-05T22:52:06.401Z,101190.47
2022-08-05T22:54:40.866Z,101199.50
2022-08-05T22:57:17.301Z,101187.31
2022-08-05T22:59:53.929Z,101153.25
2022-08-05T23:02:28.774Z,101196.13
2022-08-05T23:05:01.757Z,101199.78
2022-08-05T23:07:48.580Z,101202.44
2022-08-05T23:10:19.904Z,101214.06
2022-08-05T23:12:51.168Z,101210.13
2022-08-05T23:15:20.251Z,101204.75
2022-08-05T23:18:00.800Z,101213.72
2022-08-05T23:20:32.207Z,101216.56
2022-08-05T23:23:05.783Z,101207.94
2022-08-05T23:25:52.435Z,101219.38
2022-08-05T23:28:23.954Z,101219.50
2022-08-05T23:30:55.075Z,101230.13
2022-08-05T23:34:02.721Z,101221.44
2022-08-05T23:36:14.051Z,101225.03
2022-08-05T23:38:43.689Z,101217.84
2022-08-05T23:41:12.427Z,101224.88
2022-08-05T23:44:06.458Z,101219.50
2022-08-05T23:46:30.099Z,101216.91
2022-08-05T23:49:03.766Z,101191.66
2022-08-05T23:52:01.416Z,101225.09
2022-08-05T23:54:36.369Z,101198.72
2022-08-05T23:57:07.895Z,101239.22
